Página principal
METAR-TAF:

METAR-TAF

Aeroportos :

El Aaiún, Marrocos

latitude: 27-10N, longitude: 013-12-59W, altura: 6 m

Observação actual do tempo

O boletim foi feito há 2 horas e 5 minutos, às 00:00 UTC
Vento 11 kt de nordeste
Temperatura 21°C
Humidade 83%
Pressão 1014 hPa
Visibilidade 10 km ou mais
sem nuvens abaixo de 1500 metros e sem cumulonimbus

METAR: GMML 220000Z 04011KT CAVOK 21/18 Q1014 NOSIG

Hora: 03:05 (02:05 UTC)

Previsão

O boletim foi feito há 3 horas e 5 minutos, às 23:00 UTC
Previsão válida de 22 às 00 UTC a 23 às 06 UTC
Vento 10 kt de nor-nordeste
Visibilidade: 8000 m

TAF: GMML 212300Z 2200/2306 03010KT 8000 NSC

Observações e previsões do tempo de mais de 4000 aeroportos (mensagens METAR e TAF).

As estações disponíveis são os pontos amarelos e vermelhos sobre o mapa.

Mova o rato sobre o mapa para ver o nome da estação.

Depois clique no ponto para visualizar as observações e previsões meteorológicas.

Para alterar o mapa : clique nos botões verdes com uma cruz preta para aumentar o zoom; no botão verde com uma pitada de zoom; ou nas setas verdes para mapas adjacentes.


METAR-TAF: